Ana Sayfa
METAR-TAF:

METAR-TAF

Havaalanları :

Suffolk Executive Airport

Suffolk, Virginia, Amerika Birleşik Devletleri

Enlem: 36-40-56N, Boylam: 076-36-07W, yükseklik: 22 m

Güncel hava durumu gözlemi

Rapor saat 23:15 UTC de 18 dakika önce yapıldı.
Sakin rüzgar
Sıcaklık 31°C
Nem 66%
Basınç 1012 hPa
Görüş mesafesi: 16.1 km
Açık gökyüzü

METAR: KSFQ 182315Z AUTO 00000KT 10SM CLR 31/24 A2989 RMK AO2 LTG DSNT W THRU N T03090235

Saat: 19:33 (23:33 UTC)


TAF: eksik

4.000'den fazla havaalanı için hava durumu gözlemleri ve tahminleri (METAR ve TAF raporları).

Kullanılabilir istasyonlar harita üzerinde sarı ve kırmızı noktalarla gösterilir.

İstasyonun adını görmek için fareyi noktanın üzerinde gezdirin.

Sonrasında hava gözlem ve tahminlerini görmek için tıklayın.

Haritayı değiştirmek için: yaklaştırmak için siyah artı işaretli yeşil düğmeye ve uzaklaştırmak için de eksi işaretli düğmeye hızla tıklayın; bitişik haritalar için yeşil okları kullanın.


METAR-TAF: